createdAt,value
2023-03-18T00:00:10.173Z,63.93
2023-03-18T00:02:38.220Z,64.83
2023-03-18T00:05:07.619Z,65.72
2023-03-18T00:07:36.228Z,65.81
2023-03-18T00:10:04.868Z,65.79
2023-03-18T00:12:33.225Z,66.16
2023-03-18T00:15:00.008Z,67.16
2023-03-18T00:17:28.047Z,66.60
2023-03-18T00:19:55.273Z,67.29
2023-03-18T00:22:22.737Z,67.02
2023-03-18T00:24:49.406Z,66.64
2023-03-18T00:27:16.195Z,66.46
2023-03-18T00:29:43.003Z,66.85
2023-03-18T00:32:10.000Z,66.84
2023-03-18T00:34:36.760Z,66.58
2023-03-18T00:37:03.724Z,66.61
2023-03-18T00:39:33.082Z,67.20
2023-03-18T00:42:02.031Z,64.42
2023-03-18T00:44:28.859Z,65.07
2023-03-18T00:46:55.686Z,65.21
2023-03-18T00:49:22.402Z,65.49
2023-03-18T00:51:49.111Z,65.90
2023-03-18T00:54:18.730Z,65.09
2023-03-18T00:56:45.560Z,64.92
2023-03-18T00:59:12.268Z,64.71
2023-03-18T01:01:39.314Z,64.76
2023-03-18T01:04:07.132Z,65.00
2023-03-18T01:06:36.009Z,65.08
2023-03-18T01:09:05.256Z,65.14
2023-03-18T01:11:33.418Z,64.80
2023-03-18T01:14:00.740Z,65.33
2023-03-18T01:16:28.461Z,64.82
2023-03-18T01:18:55.206Z,64.84
2023-03-18T01:21:22.579Z,65.09
2023-03-18T01:23:49.377Z,64.99
2023-03-18T01:26:16.860Z,64.56
2023-03-18T01:28:43.501Z,64.60
2023-03-18T01:31:10.648Z,64.40
2023-03-18T01:33:37.376Z,64.48
2023-03-18T01:36:05.134Z,64.77
2023-03-18T01:38:32.381Z,64.79
2023-03-18T01:41:00.932Z,64.20
2023-03-18T01:43:36.304Z,63.97
2023-03-18T01:46:29.153Z,64.06
2023-03-18T01:48:56.905Z,64.21
2023-03-18T01:51:26.668Z,63.03
2023-03-18T01:53:54.650Z,63.49
2023-03-18T01:56:22.206Z,63.20
2023-03-18T01:58:53.606Z,63.52
2023-03-18T02:01:26.510Z,63.30
2023-03-18T02:03:54.219Z,63.26
2023-03-18T02:06:21.009Z,63.24
2023-03-18T02:08:47.960Z,63.24
2023-03-18T02:11:14.987Z,63.31
2023-03-18T02:13:44.533Z,63.57
2023-03-18T02:16:44.346Z,63.78
2023-03-18T02:19:44.903Z,63.54
2023-03-18T02:22:23.965Z,64.73
2023-03-18T02:24:50.713Z,64.54
2023-03-18T02:27:30.276Z,64.83
2023-03-18T02:30:01.566Z,64.97
2023-03-18T02:32:31.193Z,65.10
2023-03-18T02:35:01.298Z,65.08
2023-03-18T02:37:27.990Z,64.72
2023-03-18T02:39:54.665Z,64.97
2023-03-18T02:42:31.929Z,64.95
2023-03-18T02:44:59.741Z,65.64
2023-03-18T02:47:28.921Z,65.91
2023-03-18T02:49:56.742Z,66.02
2023-03-18T02:52:23.537Z,65.94
2023-03-18T02:54:50.227Z,66.24
2023-03-18T02:57:16.848Z,66.12
2023-03-18T02:59:43.528Z,66.47
2023-03-18T03:02:10.780Z,66.88
2023-03-18T03:04:37.638Z,66.39
2023-03-18T03:07:04.401Z,66.48
2023-03-18T03:09:31.238Z,66.69
2023-03-18T03:11:57.896Z,66.06
2023-03-18T03:14:24.569Z,66.21
2023-03-18T03:16:51.931Z,65.88
2023-03-18T03:19:18.664Z,65.65
2023-03-18T03:21:45.302Z,65.93
2023-03-18T03:24:12.062Z,65.99
2023-03-18T03:26:38.714Z,66.19
2023-03-18T03:29:05.677Z,66.67
2023-03-18T03:31:33.010Z,66.51
2023-03-18T03:34:00.120Z,66.23
2023-03-18T03:36:27.269Z,65.88
2023-03-18T03:38:54.135Z,65.80
2023-03-18T03:41:21.020Z,65.82
2023-03-18T03:43:48.010Z,65.95
2023-03-18T03:46:15.556Z,65.78
2023-03-18T03:48:42.529Z,65.68
2023-03-18T03:51:09.377Z,66.01
2023-03-18T03:53:36.287Z,66.37
2023-03-18T03:56:04.537Z,65.47
2023-03-18T03:58:31.299Z,65.67
2023-03-18T04:00:58.404Z,65.83
2023-03-18T04:03:25.664Z,66.12
2023-03-18T04:05:52.676Z,66.19
2023-03-18T04:08:19.662Z,66.13
2023-03-18T04:10:46.951Z,65.94
2023-03-18T04:13:13.940Z,66.09
2023-03-18T04:15:40.894Z,63.83
2023-03-18T04:18:09.094Z,64.43
2023-03-18T04:20:37.645Z,64.78
2023-03-18T04:23:05.356Z,64.96
2023-03-18T04:25:33.330Z,63.51
2023-03-18T04:28:00.141Z,63.95
2023-03-18T04:30:27.568Z,64.19
2023-03-18T04:32:55.058Z,64.58
2023-03-18T04:35:23.439Z,65.21
2023-03-18T04:37:50.313Z,65.54
2023-03-18T04:40:17.919Z,65.21
2023-03-18T04:42:47.612Z,66.11
2023-03-18T04:45:16.091Z,64.24
2023-03-18T04:47:44.455Z,66.77
2023-03-18T04:50:12.591Z,65.34
2023-03-18T04:52:42.892Z,65.75
2023-03-18T04:55:10.974Z,66.82
2023-03-18T04:57:38.781Z,66.57
2023-03-18T05:00:11.999Z,66.90
2023-03-18T05:02:40.066Z,67.09
2023-03-18T05:05:08.213Z,66.96
2023-03-18T05:07:35.085Z,67.42
2023-03-18T05:10:02.033Z,67.53
2023-03-18T05:12:28.803Z,67.15
2023-03-18T05:14:55.895Z,67.79
2023-03-18T05:17:22.557Z,69.32
2023-03-18T05:19:49.427Z,68.81
2023-03-18T05:22:18.276Z,69.05
2023-03-18T05:24:48.740Z,68.58
2023-03-18T05:27:18.482Z,69.71
2023-03-18T05:29:46.083Z,69.06
2023-03-18T05:32:14.792Z,69.67
2023-03-18T05:34:42.509Z,69.55
2023-03-18T05:37:12.281Z,69.68
2023-03-18T05:39:39.826Z,69.66
2023-03-18T05:42:07.319Z,69.22
2023-03-18T05:44:34.880Z,69.97
2023-03-18T05:47:02.721Z,70.40
2023-03-18T05:49:29.452Z,70.25
2023-03-18T05:51:56.339Z,70.39
2023-03-18T05:54:23.511Z,69.67
2023-03-18T05:56:52.588Z,69.62
2023-03-18T05:59:20.054Z,69.44
2023-03-18T06:01:47.040Z,69.57
2023-03-18T06:04:13.799Z,69.53
2023-03-18T06:06:41.164Z,69.87
2023-03-18T06:09:10.843Z,69.75
2023-03-18T06:11:40.153Z,70.15
2023-03-18T06:14:08.203Z,70.23
2023-03-18T06:16:35.405Z,69.53
2023-03-18T06:19:03.462Z,69.19
2023-03-18T06:21:31.704Z,68.70
2023-03-18T06:23:58.785Z,68.53
2023-03-18T06:26:25.666Z,68.68
2023-03-18T06:28:52.662Z,68.67
2023-03-18T06:31:19.622Z,67.76
2023-03-18T06:33:46.609Z,68.22
2023-03-18T06:36:13.477Z,67.58
2023-03-18T06:38:40.393Z,68.29
2023-03-18T06:41:07.279Z,68.09
2023-03-18T06:43:34.000Z,67.85
2023-03-18T06:46:00.919Z,66.44
2023-03-18T06:48:28.957Z,66.98
2023-03-18T06:50:55.806Z,67.45
2023-03-18T06:53:23.003Z,66.73
2023-03-18T06:55:49.990Z,66.57
2023-03-18T06:58:17.490Z,66.79
2023-03-18T07:00:45.534Z,65.69
2023-03-18T07:03:13.462Z,65.30
2023-03-18T07:05:42.198Z,65.67
2023-03-18T07:08:09.349Z,65.85
2023-03-18T07:10:36.231Z,64.08
2023-03-18T07:13:02.922Z,65.24
2023-03-18T07:15:30.578Z,64.55
2023-03-18T07:17:57.288Z,64.20
2023-03-18T07:20:24.225Z,64.58
2023-03-18T07:22:51.631Z,64.47
2023-03-18T07:25:18.367Z,63.31
2023-03-18T07:27:45.694Z,63.45
2023-03-18T07:30:13.737Z,62.71
2023-03-18T07:32:40.429Z,63.03
2023-03-18T07:35:08.074Z,63.34
2023-03-18T07:37:36.050Z,62.88
2023-03-18T07:40:02.901Z,62.43
2023-03-18T07:42:29.537Z,63.27
2023-03-18T07:44:56.348Z,62.70
2023-03-18T07:47:25.019Z,63.28
2023-03-18T07:49:52.119Z,63.58
2023-03-18T07:52:19.301Z,63.06
2023-03-18T07:54:46.028Z,62.34
2023-03-18T07:57:13.093Z,62.16
2023-03-18T07:59:39.879Z,62.95
2023-03-18T08:02:08.246Z,62.23
2023-03-18T08:04:35.674Z,62.43
2023-03-18T08:07:03.219Z,63.47
2023-03-18T08:09:29.883Z,64.14
2023-03-18T08:11:56.703Z,63.74
2023-03-18T08:14:23.511Z,63.77
2023-03-18T08:16:50.350Z,64.32
2023-03-18T08:19:17.302Z,64.39
2023-03-18T08:21:44.205Z,63.06
2023-03-18T08:24:11.231Z,63.31
2023-03-18T08:26:38.213Z,63.87
2023-03-18T08:29:04.890Z,63.68
2023-03-18T08:31:31.911Z,63.05
2023-03-18T08:34:00.541Z,63.13
2023-03-18T08:36:28.905Z,63.62
2023-03-18T08:38:56.599Z,62.82
2023-03-18T08:41:25.768Z,62.53
2023-03-18T08:43:53.230Z,63.18
2023-03-18T08:46:20.182Z,63.09
2023-03-18T08:48:47.265Z,63.46
2023-03-18T08:51:14.756Z,61.88
2023-03-18T08:53:41.480Z,62.67
2023-03-18T08:56:08.356Z,61.72
2023-03-18T08:58:35.205Z,61.77
2023-03-18T09:01:05.502Z,61.95
2023-03-18T09:03:33.827Z,61.86
2023-03-18T09:06:01.166Z,61.42
2023-03-18T09:08:30.814Z,61.31
2023-03-18T09:10:58.408Z,61.03
2023-03-18T09:13:26.147Z,61.21
2023-03-18T09:15:53.103Z,61.29
2023-03-18T09:18:20.110Z,60.78
2023-03-18T09:20:46.803Z,60.60
2023-03-18T09:23:14.555Z,60.80
2023-03-18T09:25:44.866Z,60.56
2023-03-18T09:28:11.524Z,60.80
2023-03-18T09:30:39.121Z,60.26
2023-03-18T09:33:07.050Z,59.68
2023-03-18T09:35:35.382Z,60.27
2023-03-18T09:38:02.518Z,60.95
2023-03-18T09:40:32.750Z,58.55
2023-03-18T09:43:23.039Z,60.12
2023-03-18T09:46:05.151Z,59.17
2023-03-18T09:48:31.898Z,59.31
2023-03-18T09:51:10.273Z,58.52
2023-03-18T09:54:08.770Z,59.18
2023-03-18T09:56:36.868Z,57.92
2023-03-18T09:59:21.646Z,59.22
2023-03-18T10:01:54.417Z,58.98
2023-03-18T10:04:27.991Z,58.87
2023-03-18T10:07:04.238Z,59.01
2023-03-18T10:09:44.650Z,57.49
2023-03-18T10:12:35.754Z,57.16
2023-03-18T10:15:11.283Z,57.14
2023-03-18T10:17:42.676Z,58.04
2023-03-18T10:20:37.745Z,56.63
2023-03-18T10:23:27.459Z,57.61
2023-03-18T10:25:58.057Z,56.39
2023-03-18T10:28:41.743Z,55.18
2023-03-18T10:31:53.053Z,56.43
2023-03-18T10:34:23.481Z,56.63
2023-03-18T10:36:55.674Z,55.61
2023-03-18T10:39:26.019Z,55.47
2023-03-18T10:41:54.428Z,54.81
2023-03-18T10:44:27.054Z,55.03
2023-03-18T10:47:19.922Z,55.36
2023-03-18T10:50:12.018Z,54.75
2023-03-18T10:52:47.251Z,55.10
2023-03-18T10:55:17.773Z,53.99
2023-03-18T10:57:44.596Z,54.07
2023-03-18T11:00:34.502Z,52.97
2023-03-18T11:03:04.283Z,53.74
2023-03-18T11:05:35.773Z,53.10
2023-03-18T11:08:05.607Z,53.90
2023-03-18T11:10:36.092Z,52.89
2023-03-18T11:13:03.476Z,53.17
2023-03-18T11:15:39.828Z,52.77
2023-03-18T11:18:18.338Z,53.20
2023-03-18T11:20:59.401Z,51.98
2023-03-18T11:23:48.575Z,52.06
2023-03-18T11:26:22.185Z,52.61
2023-03-18T11:28:48.885Z,53.32
2023-03-18T11:31:18.909Z,52.26
2023-03-18T11:33:45.748Z,52.47
2023-03-18T11:36:22.936Z,52.17
2023-03-18T11:39:03.914Z,49.63
2023-03-18T11:41:30.818Z,51.51
2023-03-18T11:44:03.512Z,50.32
2023-03-18T11:46:43.507Z,51.68
2023-03-18T11:49:15.542Z,50.43
2023-03-18T11:51:44.738Z,48.68
2023-03-18T11:54:11.263Z,50.16
2023-03-18T11:56:58.699Z,49.48
2023-03-18T11:59:52.868Z,46.76
2023-03-18T12:02:19.516Z,49.42
2023-03-18T12:04:54.897Z,48.03
2023-03-18T12:07:40.665Z,48.17
2023-03-18T12:10:26.294Z,47.08
2023-03-18T12:13:05.204Z,47.36
2023-03-18T12:15:53.193Z,47.44
2023-03-18T12:18:29.109Z,47.77
2023-03-18T12:21:02.700Z,46.30
2023-03-18T12:23:40.007Z,46.34
2023-03-18T12:26:11.693Z,46.85
2023-03-18T12:28:38.278Z,46.09
2023-03-18T12:31:14.271Z,43.53
2023-03-18T12:33:50.964Z,45.99
2023-03-18T12:36:20.477Z,44.99
2023-03-18T12:39:08.826Z,45.05
2023-03-18T12:41:46.186Z,45.13
2023-03-18T12:44:38.971Z,45.32
2023-03-18T12:47:15.442Z,42.69
2023-03-18T12:49:49.458Z,44.60
2023-03-18T12:52:38.080Z,44.02
2023-03-18T12:55:11.395Z,43.62
2023-03-18T12:57:48.788Z,42.92
2023-03-18T13:00:37.310Z,43.24
2023-03-18T13:03:25.112Z,41.64
2023-03-18T13:05:58.446Z,42.01
2023-03-18T13:08:54.367Z,40.85
2023-03-18T13:11:54.817Z,40.93
2023-03-18T13:14:31.469Z,41.61
2023-03-18T13:16:59.266Z,41.28
2023-03-18T13:19:25.989Z,41.12
2023-03-18T13:22:03.923Z,40.60
2023-03-18T13:24:39.855Z,38.64
2023-03-18T13:27:19.752Z,40.72
2023-03-18T13:30:17.622Z,37.36
2023-03-18T13:32:53.294Z,38.81
2023-03-18T13:35:22.641Z,39.30
2023-03-18T13:38:14.601Z,39.26
2023-03-18T13:40:50.891Z,40.31
2023-03-18T13:43:21.168Z,38.94
2023-03-18T13:45:53.657Z,38.77
2023-03-18T13:48:33.767Z,36.83
2023-03-18T13:51:34.464Z,38.86
2023-03-18T13:54:08.784Z,38.17
2023-03-18T13:56:42.872Z,38.35
2023-03-18T13:59:34.412Z,38.75
2023-03-18T14:02:55.752Z,37.06
2023-03-18T14:05:42.556Z,37.91
2023-03-18T14:08:42.354Z,38.41
2023-03-18T14:11:19.715Z,37.26
2023-03-18T14:13:55.463Z,37.35
2023-03-18T14:16:30.036Z,38.03
2023-03-18T14:19:00.139Z,38.60
2023-03-18T14:21:29.450Z,36.02
2023-03-18T14:24:07.585Z,37.82
2023-03-18T14:26:34.666Z,38.85
2023-03-18T14:29:07.298Z,38.97
2023-03-18T14:31:40.045Z,38.78
2023-03-18T14:34:19.271Z,38.29
2023-03-18T14:36:55.659Z,38.68
2023-03-18T14:39:28.190Z,39.71
2023-03-18T14:41:58.154Z,39.58
2023-03-18T14:44:36.121Z,38.94
2023-03-18T14:47:35.604Z,38.05
2023-03-18T14:50:14.500Z,38.56
2023-03-18T14:52:47.999Z,39.08
2023-03-18T14:55:21.542Z,37.53
2023-03-18T14:57:48.209Z,38.27
2023-03-18T15:00:21.747Z,36.78
2023-03-18T15:03:00.702Z,37.98
2023-03-18T15:05:34.939Z,39.41
2023-03-18T15:08:02.557Z,39.78
2023-03-18T15:10:31.744Z,39.92
2023-03-18T15:13:04.616Z,39.33
2023-03-18T15:15:32.282Z,40.83
2023-03-18T15:18:16.862Z,40.04
2023-03-18T15:20:44.640Z,39.93
2023-03-18T15:23:14.727Z,40.94
2023-03-18T15:25:44.560Z,40.17
2023-03-18T15:28:19.469Z,41.42
2023-03-18T15:30:55.769Z,40.83
2023-03-18T15:33:26.164Z,41.30
2023-03-18T15:36:03.241Z,41.26
2023-03-18T15:38:31.646Z,41.68
2023-03-18T15:41:10.348Z,42.08
2023-03-18T15:43:46.047Z,42.21
2023-03-18T15:46:19.468Z,41.06
2023-03-18T15:48:54.608Z,41.82
2023-03-18T15:51:38.623Z,41.52
2023-03-18T15:54:14.929Z,42.13
2023-03-18T15:56:48.807Z,42.45
2023-03-18T15:59:24.330Z,42.33
2023-03-18T16:01:50.980Z,42.80
2023-03-18T16:04:18.302Z,42.27
2023-03-18T16:06:45.008Z,42.29
2023-03-18T16:09:20.146Z,42.24
2023-03-18T16:11:54.382Z,43.15
2023-03-18T16:14:28.662Z,43.73
2023-03-18T16:16:55.345Z,43.71
2023-03-18T16:19:25.406Z,44.01
2023-03-18T16:21:53.092Z,43.80
2023-03-18T16:24:20.130Z,44.18
2023-03-18T16:26:47.024Z,44.38
2023-03-18T16:29:33.755Z,44.34
2023-03-18T16:32:01.903Z,44.14
2023-03-18T16:34:28.802Z,44.56
2023-03-18T16:36:56.152Z,45.16
2023-03-18T16:39:25.031Z,45.39
2023-03-18T16:41:52.716Z,45.29
2023-03-18T16:44:22.264Z,45.54
2023-03-18T16:46:53.815Z,45.44
2023-03-18T16:49:24.058Z,45.33
2023-03-18T16:51:51.710Z,45.28
2023-03-18T16:54:21.056Z,45.23
2023-03-18T16:56:48.980Z,45.34
2023-03-18T16:59:15.822Z,45.73
2023-03-18T17:01:43.970Z,45.93
2023-03-18T17:04:30.671Z,46.21
2023-03-18T17:06:59.819Z,46.27
2023-03-18T17:09:26.937Z,46.59
2023-03-18T17:12:00.537Z,47.02
2023-03-18T17:14:34.768Z,47.16
2023-03-18T17:17:05.268Z,47.67
2023-03-18T17:19:31.903Z,47.94
2023-03-18T17:21:58.547Z,48.26
2023-03-18T17:24:25.230Z,48.59
2023-03-18T17:26:52.725Z,48.82
2023-03-18T17:29:24.562Z,49.01
2023-03-18T17:31:53.693Z,49.44
2023-03-18T17:34:21.443Z,50.10
2023-03-18T17:36:48.690Z,50.57
2023-03-18T17:39:15.772Z,51.01
2023-03-18T17:41:42.827Z,50.88
2023-03-18T17:44:30.164Z,51.44
2023-03-18T17:46:57.638Z,52.50
2023-03-18T17:49:26.522Z,52.82
2023-03-18T17:51:56.652Z,52.67
2023-03-18T17:54:27.229Z,52.88
2023-03-18T17:56:54.068Z,53.34
2023-03-18T17:59:21.076Z,53.97
2023-03-18T18:01:50.386Z,54.38
2023-03-18T18:04:18.750Z,53.97
2023-03-18T18:06:47.979Z,55.61
2023-03-18T18:09:15.888Z,55.71
2023-03-18T18:11:45.713Z,55.84
2023-03-18T18:14:24.621Z,55.07
2023-03-18T18:16:53.686Z,56.44
2023-03-18T18:19:20.665Z,56.66
2023-03-18T18:21:49.204Z,56.76
2023-03-18T18:24:25.881Z,58.43
2023-03-18T18:26:52.771Z,58.89
2023-03-18T18:29:24.751Z,59.21
2023-03-18T18:31:52.365Z,58.75
2023-03-18T18:34:21.314Z,58.56
2023-03-18T18:36:48.726Z,58.93
2023-03-18T18:39:15.438Z,60.62
2023-03-18T18:41:42.124Z,60.12
2023-03-18T18:44:08.827Z,60.71
2023-03-18T18:46:36.024Z,60.60
2023-03-18T18:49:03.354Z,60.91
2023-03-18T18:51:30.059Z,62.08
2023-03-18T18:53:56.708Z,61.01
2023-03-18T18:56:35.303Z,60.67
2023-03-18T18:59:07.527Z,60.10
2023-03-18T19:01:34.179Z,61.19
2023-03-18T19:04:02.720Z,61.05
2023-03-18T19:06:31.639Z,62.71
2023-03-18T19:09:00.396Z,62.51
2023-03-18T19:11:28.500Z,62.88
2023-03-18T19:14:15.331Z,63.50
2023-03-18T19:16:42.587Z,63.84
2023-03-18T19:19:21.297Z,64.08
2023-03-18T19:21:49.116Z,64.32
2023-03-18T19:24:33.360Z,63.42
2023-03-18T19:27:05.618Z,63.77
2023-03-18T19:29:35.539Z,65.78
2023-03-18T19:32:02.274Z,65.88
2023-03-18T19:34:32.293Z,65.20
2023-03-18T19:36:59.924Z,66.16
2023-03-18T19:39:28.138Z,66.50
2023-03-18T19:41:54.844Z,67.29
2023-03-18T19:44:24.206Z,66.63
2023-03-18T19:46:58.621Z,67.38
2023-03-18T19:49:35.742Z,67.29
2023-03-18T19:52:17.070Z,69.58
2023-03-18T19:54:43.935Z,69.50
2023-03-18T19:57:20.390Z,68.92
2023-03-18T19:59:49.191Z,68.61
2023-03-18T20:02:26.105Z,68.37
2023-03-18T20:04:58.081Z,68.32
2023-03-18T20:07:29.967Z,68.34
2023-03-18T20:09:56.800Z,68.48
2023-03-18T20:12:30.413Z,68.78
2023-03-18T20:14:57.008Z,69.33
2023-03-18T20:17:23.514Z,69.19
2023-03-18T20:19:50.601Z,68.91
2023-03-18T20:22:27.006Z,69.62
2023-03-18T20:24:54.633Z,70.15
2023-03-18T20:27:21.941Z,69.91
2023-03-18T20:29:48.699Z,69.38
2023-03-18T20:32:15.349Z,69.70
2023-03-18T20:34:43.863Z,69.12
2023-03-18T20:37:29.947Z,68.99
2023-03-18T20:39:56.720Z,68.95
2023-03-18T20:42:23.600Z,69.77
2023-03-18T20:44:50.194Z,70.16
2023-03-18T20:47:16.890Z,69.58
2023-03-18T20:49:47.666Z,69.40
2023-03-18T20:52:26.023Z,69.95
2023-03-18T20:54:53.162Z,70.39
2023-03-18T20:57:19.969Z,70.19
2023-03-18T20:59:47.301Z,70.45
2023-03-18T21:02:29.968Z,71.53
2023-03-18T21:05:01.758Z,72.43
2023-03-18T21:07:29.113Z,71.03
2023-03-18T21:09:56.050Z,70.75
2023-03-18T21:12:23.275Z,70.15
2023-03-18T21:14:50.128Z,70.21
2023-03-18T21:17:24.848Z,71.17
2023-03-18T21:19:53.650Z,70.99
2023-03-18T21:22:23.361Z,69.92
2023-03-18T21:24:50.520Z,69.52
2023-03-18T21:27:22.371Z,70.68
2023-03-18T21:29:51.199Z,70.21
2023-03-18T21:32:29.805Z,69.82
2023-03-18T21:34:56.903Z,70.47
2023-03-18T21:37:26.540Z,70.05
2023-03-18T21:39:53.756Z,69.69
2023-03-18T21:42:24.390Z,69.42
2023-03-18T21:44:51.909Z,71.32
2023-03-18T21:47:20.947Z,71.46
2023-03-18T21:49:49.026Z,71.50
2023-03-18T21:52:34.473Z,72.61
2023-03-18T21:55:02.090Z,72.99
2023-03-18T21:57:29.222Z,73.61
2023-03-18T21:59:56.178Z,73.20
2023-03-18T22:02:30.736Z,73.22
2023-03-18T22:05:02.818Z,73.50
2023-03-18T22:07:31.677Z,73.91
2023-03-18T22:09:58.864Z,73.42
2023-03-18T22:12:31.078Z,73.62
2023-03-18T22:14:58.277Z,73.13
2023-03-18T22:17:27.550Z,73.45
2023-03-18T22:19:56.081Z,74.51
2023-03-18T22:22:25.679Z,73.70
2023-03-18T22:24:52.552Z,74.01
2023-03-18T22:27:25.357Z,74.02
2023-03-18T22:29:53.404Z,74.11
2023-03-18T22:32:38.238Z,74.82
2023-03-18T22:35:18.788Z,77.07
2023-03-18T22:37:45.971Z,76.31
2023-03-18T22:40:23.761Z,74.93
2023-03-18T22:42:53.080Z,75.89
2023-03-18T22:45:21.775Z,76.37
2023-03-18T22:47:50.432Z,75.91
2023-03-18T22:50:17.983Z,75.08
2023-03-18T22:52:46.032Z,74.78
2023-03-18T22:55:28.534Z,74.88
2023-03-18T22:57:55.215Z,75.13
2023-03-18T23:00:45.300Z,75.50
2023-03-18T23:03:26.673Z,76.99
2023-03-18T23:05:55.525Z,79.08
2023-03-18T23:08:22.672Z,78.02
2023-03-18T23:10:51.200Z,78.41
2023-03-18T23:13:26.053Z,78.05
2023-03-18T23:15:53.179Z,78.44
2023-03-18T23:18:40.577Z,77.75
2023-03-18T23:21:07.225Z,77.88
2023-03-18T23:23:33.825Z,78.44
2023-03-18T23:26:00.615Z,78.94
2023-03-18T23:28:27.316Z,78.88
2023-03-18T23:30:54.059Z,78.15
2023-03-18T23:33:20.896Z,77.18
2023-03-18T23:35:48.783Z,76.26
2023-03-18T23:38:16.125Z,77.72
2023-03-18T23:40:42.754Z,77.99
2023-03-18T23:43:09.564Z,76.97
2023-03-18T23:45:38.080Z,77.64
2023-03-18T23:48:05.715Z,77.33
2023-03-18T23:50:32.913Z,77.54
2023-03-18T23:53:00.202Z,77.18
2023-03-18T23:55:45.634Z,79.09
2023-03-18T23:58:12.300Z,79.64
